sensor_id;sensor_type;location;lat;lon;timestamp;P1;durP1;ratioP1;P2;durP2;ratioP2
34471;SDS011;20710;49.976;19.836;2024-01-30T00:17:15;160.10;;;77.50;;
34471;SDS011;20710;49.976;19.836;2024-01-30T00:24:07;182.70;;;82.10;;
34471;SDS011;20710;49.976;19.836;2024-01-30T00:31:40;182.90;;;86.40;;
34471;SDS011;20710;49.976;19.836;2024-01-30T00:52:46;196.60;;;100.20;;
34471;SDS011;20710;49.976;19.836;2024-01-30T00:59:47;170.20;;;79.70;;
34471;SDS011;20710;49.976;19.836;2024-01-30T01:07:34;203.20;;;100.60;;
34471;SDS011;20710;49.976;19.836;2024-01-30T01:20:57;168.20;;;82.00;;
34471;SDS011;20710;49.976;19.836;2024-01-30T01:28:44;175.80;;;86.80;;
34471;SDS011;20710;49.976;19.836;2024-01-30T01:35:47;150.80;;;71.50;;
34471;SDS011;20710;49.976;19.836;2024-01-30T01:42:41;138.00;;;66.30;;
34471;SDS011;20710;49.976;19.836;2024-01-30T01:49:54;142.90;;;66.00;;
34471;SDS011;20710;49.976;19.836;2024-01-30T01:56:30;134.50;;;64.90;;
34471;SDS011;20710;49.976;19.836;2024-01-30T02:03:21;135.90;;;65.80;;
34471;SDS011;20710;49.976;19.836;2024-01-30T02:09:41;146.70;;;70.30;;
34471;SDS011;20710;49.976;19.836;2024-01-30T02:16:11;147.90;;;67.20;;
34471;SDS011;20710;49.976;19.836;2024-01-30T02:22:35;145.50;;;67.60;;
34471;SDS011;20710;49.976;19.836;2024-01-30T02:29:39;154.20;;;69.90;;
34471;SDS011;20710;49.976;19.836;2024-01-30T02:36:23;144.20;;;67.00;;
34471;SDS011;20710;49.976;19.836;2024-01-30T02:42:25;164.00;;;76.20;;
34471;SDS011;20710;49.976;19.836;2024-01-30T02:48:27;145.80;;;67.00;;
34471;SDS011;20710;49.976;19.836;2024-01-30T02:54:29;142.00;;;66.00;;
34471;SDS011;20710;49.976;19.836;2024-01-30T03:01:08;140.10;;;65.40;;
34471;SDS011;20710;49.976;19.836;2024-01-30T03:26:33;130.20;;;58.90;;
34471;SDS011;20710;49.976;19.836;2024-01-30T03:39:55;136.20;;;62.10;;
34471;SDS011;20710;49.976;19.836;2024-01-30T04:07:29;150.50;;;69.70;;
34471;SDS011;20710;49.976;19.836;2024-01-30T04:13:57;129.60;;;59.70;;
34471;SDS011;20710;49.976;19.836;2024-01-30T04:21:23;140.10;;;62.30;;
34471;SDS011;20710;49.976;19.836;2024-01-30T04:35:43;148.10;;;66.90;;
34471;SDS011;20710;49.976;19.836;2024-01-30T04:41:47;143.80;;;64.80;;
34471;SDS011;20710;49.976;19.836;2024-01-30T04:48:33;172.80;;;81.50;;
34471;SDS011;20710;49.976;19.836;2024-01-30T04:55:38;158.80;;;71.10;;
34471;SDS011;20710;49.976;19.836;2024-01-30T05:02:20;160.40;;;74.30;;
34471;SDS011;20710;49.976;19.836;2024-01-30T05:08:43;186.00;;;87.60;;
34471;SDS011;20710;49.976;19.836;2024-01-30T05:14:53;158.50;;;75.20;;
34471;SDS011;20710;49.976;19.836;2024-01-30T05:20:55;168.50;;;76.20;;
34471;SDS011;20710;49.976;19.836;2024-01-30T05:26:58;175.70;;;78.70;;
34471;SDS011;20710;49.976;19.836;2024-01-30T05:33:40;168.60;;;76.60;;
34471;SDS011;20710;49.976;19.836;2024-01-30T05:39:42;158.80;;;70.30;;
34471;SDS011;20710;49.976;19.836;2024-01-30T05:45:51;158.50;;;73.20;;
34471;SDS011;20710;49.976;19.836;2024-01-30T05:52:12;171.30;;;79.00;;
34471;SDS011;20710;49.976;19.836;2024-01-30T05:58:14;179.90;;;81.00;;
34471;SDS011;20710;49.976;19.836;2024-01-30T06:04:17;179.60;;;82.70;;
34471;SDS011;20710;49.976;19.836;2024-01-30T06:10:46;180.50;;;79.60;;
34471;SDS011;20710;49.976;19.836;2024-01-30T06:16:50;163.60;;;75.90;;
34471;SDS011;20710;49.976;19.836;2024-01-30T06:23:13;171.50;;;76.30;;
34471;SDS011;20710;49.976;19.836;2024-01-30T06:30:08;171.60;;;82.10;;
34471;SDS011;20710;49.976;19.836;2024-01-30T06:36:31;175.10;;;76.30;;
34471;SDS011;20710;49.976;19.836;2024-01-30T06:43:15;186.80;;;84.50;;
34471;SDS011;20710;49.976;19.836;2024-01-30T06:49:18;181.40;;;82.30;;
34471;SDS011;20710;49.976;19.836;2024-01-30T06:55:40;170.20;;;74.40;;
34471;SDS011;20710;49.976;19.836;2024-01-30T07:01:43;176.50;;;78.80;;
34471;SDS011;20710;49.976;19.836;2024-01-30T07:08:46;169.80;;;80.00;;
34471;SDS011;20710;49.976;19.836;2024-01-30T07:15:10;170.70;;;78.70;;
34471;SDS011;20710;49.976;19.836;2024-01-30T07:21:13;165.70;;;80.10;;
34471;SDS011;20710;49.976;19.836;2024-01-30T07:27:43;188.60;;;84.20;;
34471;SDS011;20710;49.976;19.836;2024-01-30T07:33:48;204.20;;;95.20;;
34471;SDS011;20710;49.976;19.836;2024-01-30T07:47:09;297.60;;;137.10;;
34471;SDS011;20710;49.976;19.836;2024-01-30T07:53:32;321.90;;;149.60;;
34471;SDS011;20710;49.976;19.836;2024-01-30T08:00:35;336.90;;;156.80;;
34471;SDS011;20710;49.976;19.836;2024-01-30T08:07:08;365.10;;;170.30;;
34471;SDS011;20710;49.976;19.836;2024-01-30T08:20:01;400.60;;;201.10;;
34471;SDS011;20710;49.976;19.836;2024-01-30T08:26:15;399.70;;;196.90;;
34471;SDS011;20710;49.976;19.836;2024-01-30T08:32:16;411.20;;;201.90;;
34471;SDS011;20710;49.976;19.836;2024-01-30T08:59:13;420.40;;;221.80;;
34471;SDS011;20710;49.976;19.836;2024-01-30T09:05:15;340.00;;;191.20;;
34471;SDS011;20710;49.976;19.836;2024-01-30T09:12:01;344.00;;;200.30;;
34471;SDS011;20710;49.976;19.836;2024-01-30T09:33:25;271.50;;;163.30;;
34471;SDS011;20710;49.976;19.836;2024-01-30T09:47:41;156.50;;;89.00;;
34471;SDS011;20710;49.976;19.836;2024-01-30T09:54:50;135.10;;;76.30;;
34471;SDS011;20710;49.976;19.836;2024-01-30T10:08:09;80.80;;;44.20;;
34471;SDS011;20710;49.976;19.836;2024-01-30T10:21:21;43.40;;;26.40;;
34471;SDS011;20710;49.976;19.836;2024-01-30T10:27:46;37.50;;;25.10;;
34471;SDS011;20710;49.976;19.836;2024-01-30T10:43:21;42.90;;;25.20;;
34471;SDS011;20710;49.976;19.836;2024-01-30T10:49:24;44.20;;;24.00;;
34471;SDS011;20710;49.976;19.836;2024-01-30T10:55:26;37.70;;;22.30;;
34471;SDS011;20710;49.976;19.836;2024-01-30T11:01:39;38.00;;;23.60;;
34471;SDS011;20710;49.976;19.836;2024-01-30T11:09:18;53.50;;;28.30;;
34471;SDS011;20710;49.976;19.836;2024-01-30T11:23:00;51.10;;;30.00;;
34471;SDS011;20710;49.976;19.836;2024-01-30T12:49:20;72.30;;;42.00;;
34471;SDS011;20710;49.976;19.836;2024-01-30T12:56:00;65.10;;;36.60;;
34471;SDS011;20710;49.976;19.836;2024-01-30T13:09:14;78.40;;;41.90;;
34471;SDS011;20710;49.976;19.836;2024-01-30T13:23:17;92.70;;;50.40;;
34471;SDS011;20710;49.976;19.836;2024-01-30T13:30:21;88.60;;;48.70;;
34471;SDS011;20710;49.976;19.836;2024-01-30T13:38:08;94.20;;;50.60;;
34471;SDS011;20710;49.976;19.836;2024-01-30T13:44:12;98.30;;;52.40;;
34471;SDS011;20710;49.976;19.836;2024-01-30T13:50:14;92.30;;;48.80;;
34471;SDS011;20710;49.976;19.836;2024-01-30T13:56:19;81.60;;;45.10;;
34471;SDS011;20710;49.976;19.836;2024-01-30T14:03:23;82.60;;;45.00;;
34471;SDS011;20710;49.976;19.836;2024-01-30T14:10:56;86.90;;;48.00;;
34471;SDS011;20710;49.976;19.836;2024-01-30T14:17:53;81.10;;;43.90;;
34471;SDS011;20710;49.976;19.836;2024-01-30T14:24:58;81.30;;;44.60;;
34471;SDS011;20710;49.976;19.836;2024-01-30T14:31:01;73.10;;;41.00;;
34471;SDS011;20710;49.976;19.836;2024-01-30T14:38:04;78.70;;;39.50;;
34471;SDS011;20710;49.976;19.836;2024-01-30T14:45:13;78.60;;;39.70;;
34471;SDS011;20710;49.976;19.836;2024-01-30T14:52:17;75.10;;;40.90;;
34471;SDS011;20710;49.976;19.836;2024-01-30T15:00:03;75.10;;;42.00;;
34471;SDS011;20710;49.976;19.836;2024-01-30T15:07:10;83.40;;;42.60;;
34471;SDS011;20710;49.976;19.836;2024-01-30T15:13:30;83.90;;;45.60;;
34471;SDS011;20710;49.976;19.836;2024-01-30T15:19:32;79.80;;;42.90;;
34471;SDS011;20710;49.976;19.836;2024-01-30T15:25:48;80.80;;;44.10;;
34471;SDS011;20710;49.976;19.836;2024-01-30T15:39:06;82.80;;;42.10;;
34471;SDS011;20710;49.976;19.836;2024-01-30T15:45:08;86.20;;;45.00;;
34471;SDS011;20710;49.976;19.836;2024-01-30T15:51:10;97.80;;;48.40;;
34471;SDS011;20710;49.976;19.836;2024-01-30T15:57:16;109.50;;;52.80;;
34471;SDS011;20710;49.976;19.836;2024-01-30T16:10:13;118.30;;;55.70;;
34471;SDS011;20710;49.976;19.836;2024-01-30T16:16:38;120.90;;;58.70;;
34471;SDS011;20710;49.976;19.836;2024-01-30T16:22:44;115.90;;;55.30;;
34471;SDS011;20710;49.976;19.836;2024-01-30T16:28:50;115.10;;;52.90;;
34471;SDS011;20710;49.976;19.836;2024-01-30T16:35:59;139.00;;;67.90;;
34471;SDS011;20710;49.976;19.836;2024-01-30T16:42:38;125.70;;;59.60;;
34471;SDS011;20710;49.976;19.836;2024-01-30T16:48:46;119.40;;;60.40;;
34471;SDS011;20710;49.976;19.836;2024-01-30T17:02:09;124.20;;;57.80;;
34471;SDS011;20710;49.976;19.836;2024-01-30T17:08:44;104.30;;;51.10;;
34471;SDS011;20710;49.976;19.836;2024-01-30T17:15:08;105.30;;;50.90;;
34471;SDS011;20710;49.976;19.836;2024-01-30T17:22:38;146.60;;;62.80;;
34471;SDS011;20710;49.976;19.836;2024-01-30T17:37:05;127.40;;;59.20;;
34471;SDS011;20710;49.976;19.836;2024-01-30T17:44:02;156.70;;;67.50;;
34471;SDS011;20710;49.976;19.836;2024-01-30T17:51:18;136.20;;;58.40;;
34471;SDS011;20710;49.976;19.836;2024-01-30T17:58:12;136.10;;;59.70;;
34471;SDS011;20710;49.976;19.836;2024-01-30T18:04:18;134.80;;;62.40;;
34471;SDS011;20710;49.976;19.836;2024-01-30T18:17:34;109.40;;;51.30;;
34471;SDS011;20710;49.976;19.836;2024-01-30T18:39:10;138.60;;;58.20;;
34471;SDS011;20710;49.976;19.836;2024-01-30T18:54:48;173.10;;;76.10;;
34471;SDS011;20710;49.976;19.836;2024-01-30T19:02:29;156.00;;;73.40;;
34471;SDS011;20710;49.976;19.836;2024-01-30T19:10:16;145.00;;;70.90;;
34471;SDS011;20710;49.976;19.836;2024-01-30T19:18:09;145.20;;;71.50;;
34471;SDS011;20710;49.976;19.836;2024-01-30T19:25:54;169.60;;;78.40;;
34471;SDS011;20710;49.976;19.836;2024-01-30T19:33:20;182.30;;;86.70;;
34471;SDS011;20710;49.976;19.836;2024-01-30T19:41:12;172.70;;;78.10;;
34471;SDS011;20710;49.976;19.836;2024-01-30T19:48:58;172.00;;;79.30;;
34471;SDS011;20710;49.976;19.836;2024-01-30T19:56:42;177.60;;;76.70;;
34471;SDS011;20710;49.976;19.836;2024-01-30T20:11:28;162.60;;;78.30;;
34471;SDS011;20710;49.976;19.836;2024-01-30T20:18:36;182.60;;;90.30;;
34471;SDS011;20710;49.976;19.836;2024-01-30T20:25:37;203.50;;;98.70;;
34471;SDS011;20710;49.976;19.836;2024-01-30T20:32:22;193.50;;;92.80;;
34471;SDS011;20710;49.976;19.836;2024-01-30T20:39:13;200.60;;;98.80;;
34471;SDS011;20710;49.976;19.836;2024-01-30T20:54:10;206.40;;;100.00;;
34471;SDS011;20710;49.976;19.836;2024-01-30T21:09:19;199.80;;;95.50;;
34471;SDS011;20710;49.976;19.836;2024-01-30T21:16:28;212.10;;;105.30;;
34471;SDS011;20710;49.976;19.836;2024-01-30T21:22:57;234.80;;;113.20;;
34471;SDS011;20710;49.976;19.836;2024-01-30T21:29:14;207.10;;;99.20;;
34471;SDS011;20710;49.976;19.836;2024-01-30T21:35:40;218.50;;;110.20;;
34471;SDS011;20710;49.976;19.836;2024-01-30T21:42:17;195.70;;;91.90;;
34471;SDS011;20710;49.976;19.836;2024-01-30T21:48:54;175.90;;;84.10;;
34471;SDS011;20710;49.976;19.836;2024-01-30T21:55:17;171.10;;;86.50;;
34471;SDS011;20710;49.976;19.836;2024-01-30T22:02:06;161.30;;;77.90;;
34471;SDS011;20710;49.976;19.836;2024-01-30T22:54:36;147.60;;;65.70;;
34471;SDS011;20710;49.976;19.836;2024-01-30T23:24:14;111.00;;;49.20;;
34471;SDS011;20710;49.976;19.836;2024-01-30T23:47:19;119.80;;;58.00;;
